createdAt,value
2019-02-04T00:00:43.054Z,-0.17
2019-02-04T00:03:17.080Z,-0.20
2019-02-04T00:05:45.356Z,-0.19
2019-02-04T00:08:13.642Z,-0.19
2019-02-04T00:10:42.545Z,-0.17
2019-02-04T00:13:10.804Z,-0.16
2019-02-04T00:15:39.136Z,-0.16
2019-02-04T00:18:07.537Z,-0.15
2019-02-04T00:20:35.790Z,-0.15
2019-02-04T00:23:04.119Z,-0.18
2019-02-04T00:25:32.510Z,-0.14
2019-02-04T00:28:00.795Z,-0.14
2019-02-04T00:30:29.092Z,-0.15
2019-02-04T00:32:57.352Z,-0.11
2019-02-04T00:35:25.631Z,-0.12
2019-02-04T00:37:53.944Z,-0.14
2019-02-04T00:40:26.722Z,-0.14
2019-02-04T00:42:54.989Z,-0.13
2019-02-04T00:45:23.314Z,-0.11
2019-02-04T00:47:51.620Z,-0.08
2019-02-04T00:50:21.055Z,-0.08
2019-02-04T00:52:49.313Z,-0.07
2019-02-04T00:55:17.669Z,-0.10
2019-02-04T00:57:45.888Z,-0.10
2019-02-04T01:00:22.767Z,-0.11
2019-02-04T01:02:51.219Z,-0.13
2019-02-04T01:05:19.965Z,-0.12
2019-02-04T01:07:48.849Z,-0.08
2019-02-04T01:10:20.378Z,-0.07
2019-02-04T01:12:48.700Z,-0.06
2019-02-04T01:15:16.946Z,-0.05
2019-02-04T01:17:45.253Z,-0.03
2019-02-04T01:20:16.776Z,-0.02
2019-02-04T01:22:45.188Z,-0.02
2019-02-04T01:25:13.735Z,-0.01
2019-02-04T01:27:41.989Z,-0.01
2019-02-04T01:30:13.513Z,-0.02
2019-02-04T01:32:41.783Z,-0.02
2019-02-04T01:35:10.068Z,-0.02
2019-02-04T01:37:38.405Z,-0.03
2019-02-04T01:40:10.152Z,-0.05
2019-02-04T01:42:38.445Z,-0.06
2019-02-04T01:45:07.951Z,-0.07
2019-02-04T01:47:36.279Z,-0.04
2019-02-04T01:50:07.649Z,-0.06
2019-02-04T01:52:36.116Z,-0.05
2019-02-04T01:55:06.925Z,-0.05
2019-02-04T01:57:35.213Z,-0.05
2019-02-04T02:00:05.279Z,-0.07
2019-02-04T02:02:33.594Z,-0.07
2019-02-04T02:05:01.898Z,-0.10
2019-02-04T02:07:30.637Z,-0.11
2019-02-04T02:09:58.964Z,-0.11
2019-02-04T02:12:27.230Z,-0.13
2019-02-04T02:14:55.479Z,-0.09
2019-02-04T02:17:26.431Z,-0.08
2019-02-04T02:19:53.824Z,-0.13
2019-02-04T02:22:22.388Z,-0.10
2019-02-04T02:24:50.755Z,-0.11
2019-02-04T02:27:19.009Z,-0.10
2019-02-04T02:29:47.356Z,-0.13
2019-02-04T02:32:15.659Z,-0.14
2019-02-04T02:34:43.922Z,-0.13
2019-02-04T02:37:12.709Z,-0.15
2019-02-04T02:39:41.005Z,-0.17
2019-02-04T02:42:09.256Z,-0.18
2019-02-04T02:44:37.648Z,-0.18
2019-02-04T02:47:05.908Z,-0.18
2019-02-04T02:49:34.245Z,-0.19
2019-02-04T02:52:02.688Z,-0.19
2019-02-04T02:54:31.223Z,-0.19
2019-02-04T02:56:59.533Z,-0.19
2019-02-04T02:59:27.818Z,-0.22
2019-02-04T03:01:56.111Z,-0.25
2019-02-04T03:04:24.414Z,-0.28
2019-02-04T03:06:52.721Z,-0.29
2019-02-04T03:09:21.254Z,-0.29
2019-02-04T03:11:49.596Z,-0.31
2019-02-04T03:14:17.881Z,-0.33
2019-02-04T03:16:46.138Z,-0.31
2019-02-04T03:19:14.431Z,-0.29
2019-02-04T03:21:42.699Z,-0.28
2019-02-04T03:24:11.088Z,-0.27
2019-02-04T03:26:39.394Z,-0.27
2019-02-04T03:29:07.700Z,-0.23
2019-02-04T03:31:39.312Z,-0.23
2019-02-04T03:34:06.144Z,-0.22
2019-02-04T03:36:34.430Z,-0.21
2019-02-04T03:39:02.881Z,-0.21
2019-02-04T03:41:31.156Z,-0.20
2019-02-04T03:43:59.478Z,-0.19
2019-02-04T03:46:27.776Z,-0.20
2019-02-04T03:48:56.091Z,-0.20
2019-02-04T03:51:24.368Z,-0.18
2019-02-04T03:53:52.621Z,-0.19
2019-02-04T03:56:21.047Z,-0.19
2019-02-04T03:58:49.290Z,-0.22
2019-02-04T04:01:17.605Z,-0.23
2019-02-04T04:03:46.032Z,-0.22
2019-02-04T04:06:14.331Z,-0.21
2019-02-04T04:08:42.683Z,-0.19
2019-02-04T04:11:11.136Z,-0.16
2019-02-04T04:13:39.394Z,-0.17
2019-02-04T04:16:07.755Z,-0.13
2019-02-04T04:18:36.019Z,-0.11
2019-02-04T04:21:04.336Z,-0.08
2019-02-04T04:23:32.639Z,-0.06
2019-02-04T04:26:01.290Z,-0.02
2019-02-04T04:28:29.543Z,0.00
2019-02-04T04:30:57.834Z,0.00
2019-02-04T04:33:26.109Z,0.07
2019-02-04T04:35:54.429Z,0.07
2019-02-04T04:38:22.714Z,0.06
2019-02-04T04:40:51.133Z,0.05
2019-02-04T04:43:19.394Z,0.06
2019-02-04T04:45:47.646Z,0.04
2019-02-04T04:48:26.048Z,0.05
2019-02-04T04:50:46.013Z,0.07
2019-02-04T04:53:14.272Z,0.09
2019-02-04T04:55:42.558Z,0.04
2019-02-04T04:58:10.825Z,0.07
2019-02-04T05:00:39.139Z,0.09
2019-02-04T05:03:07.398Z,0.13
2019-02-04T05:05:35.726Z,0.16
2019-02-04T05:08:04.027Z,0.15
2019-02-04T05:10:32.292Z,0.14
2019-02-04T05:13:01.078Z,0.16
2019-02-04T05:15:29.412Z,0.20
2019-02-04T05:17:59.302Z,0.19
2019-02-04T05:20:27.732Z,0.19
2019-02-04T05:22:56.062Z,0.17
2019-02-04T05:25:24.322Z,0.17
2019-02-04T05:27:53.082Z,0.20
2019-02-04T05:30:23.431Z,0.21
2019-02-04T05:32:51.684Z,0.23
2019-02-04T05:35:20.087Z,0.25
2019-02-04T05:37:48.351Z,0.25
2019-02-04T05:40:17.582Z,0.24
2019-02-04T05:42:46.319Z,0.25
2019-02-04T05:45:16.617Z,0.23
2019-02-04T05:47:44.999Z,0.20
2019-02-04T05:50:17.254Z,0.15
2019-02-04T05:52:45.129Z,0.14
2019-02-04T05:55:14.180Z,0.14
2019-02-04T05:57:42.633Z,0.14
2019-02-04T06:00:13.905Z,0.16
2019-02-04T06:02:42.250Z,0.14
2019-02-04T06:05:12.244Z,0.12
2019-02-04T06:07:40.504Z,0.14
2019-02-04T06:10:10.582Z,0.11
2019-02-04T06:12:38.836Z,0.11
2019-02-04T06:15:10.633Z,0.10
2019-02-04T06:17:39.034Z,0.12
2019-02-04T06:20:10.531Z,0.15
2019-02-04T06:22:38.910Z,0.14
2019-02-04T06:25:07.527Z,0.16
2019-02-04T06:27:35.850Z,0.16
2019-02-04T06:30:05.570Z,0.16
2019-02-04T06:32:34.637Z,0.15
2019-02-04T06:35:03.216Z,0.15
2019-02-04T06:37:31.469Z,0.12
2019-02-04T06:39:59.788Z,0.11
2019-02-04T06:42:28.081Z,0.11
2019-02-04T06:44:56.367Z,0.08
2019-02-04T06:47:24.622Z,0.12
2019-02-04T06:49:53.039Z,0.13
2019-02-04T06:52:21.356Z,0.12
2019-02-04T06:54:49.638Z,0.08
2019-02-04T06:57:18.386Z,0.07
2019-02-04T06:59:46.662Z,0.05
2019-02-04T07:02:14.916Z,0.04
2019-02-04T07:04:43.204Z,0.04
2019-02-04T07:07:11.471Z,0.01
2019-02-04T07:09:39.820Z,0.05
2019-02-04T07:12:08.568Z,0.06
2019-02-04T07:14:36.988Z,0.08
2019-02-04T07:17:05.244Z,0.07
2019-02-04T07:19:33.523Z,0.09
2019-02-04T07:22:01.821Z,0.08
2019-02-04T07:24:30.083Z,0.09
2019-02-04T07:26:58.566Z,0.09
2019-02-04T07:29:27.302Z,0.11
2019-02-04T07:31:55.566Z,0.11
2019-02-04T07:34:23.881Z,0.15
2019-02-04T07:36:52.136Z,0.18
2019-02-04T07:39:20.467Z,0.24
2019-02-04T07:41:48.735Z,0.23
2019-02-04T07:44:17.043Z,0.25
2019-02-04T07:46:45.343Z,0.23
2019-02-04T07:49:14.070Z,0.27
2019-02-04T07:51:42.363Z,0.29
2019-02-04T07:54:10.635Z,0.30
2019-02-04T07:56:38.960Z,0.32
2019-02-04T07:59:07.213Z,0.37
2019-02-04T08:01:35.781Z,0.42
2019-02-04T08:04:04.415Z,0.43
2019-02-04T08:06:32.682Z,0.42
2019-02-04T08:09:00.961Z,0.44
2019-02-04T08:11:29.293Z,0.45
2019-02-04T08:13:57.661Z,0.50
2019-02-04T08:16:26.404Z,0.52
2019-02-04T08:18:54.678Z,0.57
2019-02-04T08:21:23.071Z,0.60
2019-02-04T08:23:51.329Z,0.62
2019-02-04T08:26:19.578Z,0.66
2019-02-04T08:28:47.870Z,0.67
2019-02-04T08:31:16.153Z,0.70
2019-02-04T08:33:44.505Z,0.75
2019-02-04T08:36:12.774Z,0.75
2019-02-04T08:38:41.045Z,0.77
2019-02-04T08:41:09.329Z,0.81
2019-02-04T08:43:37.601Z,0.87
2019-02-04T08:46:05.865Z,0.92
2019-02-04T08:48:34.129Z,0.96
2019-02-04T08:51:02.432Z,0.99
2019-02-04T08:53:30.690Z,1.04
2019-02-04T08:55:58.939Z,1.06
2019-02-04T08:58:27.224Z,1.10
2019-02-04T09:00:55.519Z,1.11
2019-02-04T09:03:23.829Z,1.18
2019-02-04T09:05:52.073Z,1.20
2019-02-04T09:08:20.422Z,1.19
2019-02-04T09:10:48.686Z,1.23
2019-02-04T09:13:17.088Z,1.30
2019-02-04T09:15:45.435Z,1.36
2019-02-04T09:18:13.694Z,1.39
2019-02-04T09:20:41.994Z,1.38
2019-02-04T09:23:10.379Z,1.41
2019-02-04T09:25:38.752Z,1.44
2019-02-04T09:28:07.039Z,1.47
2019-02-04T09:30:35.354Z,1.52
2019-02-04T09:33:03.882Z,1.56
2019-02-04T09:35:32.156Z,1.59
2019-02-04T09:38:05.961Z,1.62
2019-02-04T09:40:37.289Z,1.65
2019-02-04T09:43:05.796Z,1.70
2019-02-04T09:45:34.053Z,1.69
2019-02-04T09:48:05.840Z,1.73
2019-02-04T09:50:38.103Z,1.72
2019-02-04T09:53:06.892Z,1.81
2019-02-04T09:55:40.956Z,1.82
2019-02-04T09:58:12.844Z,1.84
2019-02-04T10:00:41.184Z,1.87
2019-02-04T10:03:09.617Z,1.87
2019-02-04T10:05:38.404Z,1.93
2019-02-04T10:08:07.617Z,1.95
2019-02-04T10:10:35.871Z,1.95
2019-02-04T10:13:05.146Z,1.99
2019-02-04T10:15:38.543Z,2.02
2019-02-04T10:18:07.776Z,2.10
2019-02-04T10:20:36.408Z,2.14
2019-02-04T10:23:05.594Z,2.16
2019-02-04T10:25:42.823Z,2.20
2019-02-04T10:28:13.124Z,2.23
2019-02-04T10:30:41.458Z,2.27
2019-02-04T10:33:09.799Z,2.30
2019-02-04T10:35:38.154Z,2.38
2019-02-04T10:38:06.635Z,2.36
2019-02-04T10:40:34.976Z,2.36
2019-02-04T10:43:03.293Z,2.37
2019-02-04T10:45:31.739Z,2.42
2019-02-04T10:47:59.962Z,2.46
2019-02-04T10:50:30.738Z,2.50
2019-02-04T10:52:59.142Z,2.51
2019-02-04T10:55:27.445Z,2.57
2019-02-04T10:57:55.832Z,2.58
2019-02-04T11:00:38.409Z,2.60
2019-02-04T11:03:07.079Z,2.63
2019-02-04T11:05:37.540Z,2.66
2019-02-04T11:08:07.120Z,2.71
2019-02-04T11:10:36.301Z,2.71
2019-02-04T11:13:10.721Z,2.71
2019-02-04T11:15:39.340Z,2.75
2019-02-04T11:18:07.982Z,2.78
2019-02-04T11:20:36.594Z,2.81
2019-02-04T11:23:10.839Z,2.87
2019-02-04T11:25:38.595Z,2.89
2019-02-04T11:28:08.027Z,2.90
2019-02-04T11:30:48.794Z,2.93
2019-02-04T11:33:18.947Z,2.95
2019-02-04T11:35:51.164Z,2.98
2019-02-04T11:38:19.309Z,3.04
2019-02-04T11:40:47.593Z,3.07
2019-02-04T11:43:20.591Z,3.09
2019-02-04T11:45:55.003Z,3.14
2019-02-04T11:48:26.029Z,3.16
2019-02-04T11:50:53.506Z,3.16
2019-02-04T11:53:32.520Z,3.19
2019-02-04T11:55:56.140Z,3.28
2019-02-04T11:58:33.544Z,3.29
2019-02-04T12:01:03.682Z,3.30
2019-02-04T12:03:37.681Z,3.33
2019-02-04T12:06:05.326Z,3.36
2019-02-04T12:08:33.835Z,3.39
2019-02-04T12:11:04.486Z,3.39
2019-02-04T12:13:32.787Z,3.40
2019-02-04T12:16:01.198Z,3.45
2019-02-04T12:18:29.628Z,3.42
2019-02-04T12:20:58.066Z,3.42
2019-02-04T12:23:31.768Z,3.42
2019-02-04T12:26:01.542Z,3.45
2019-02-04T12:28:31.575Z,3.46
2019-02-04T12:31:00.231Z,3.43
2019-02-04T12:33:35.361Z,3.43
2019-02-04T12:36:13.348Z,3.43
2019-02-04T12:38:37.239Z,3.43
2019-02-04T12:41:22.007Z,3.45
2019-02-04T12:44:45.941Z,3.44
2019-02-04T12:46:27.018Z,3.45
2019-02-04T12:48:54.252Z,3.45
2019-02-04T12:51:33.169Z,3.46
2019-02-04T12:53:56.514Z,3.44
2019-02-04T12:56:27.982Z,3.39
2019-02-04T12:58:58.365Z,3.39
2019-02-04T13:01:26.713Z,3.37
2019-02-04T13:04:01.037Z,3.37
2019-02-04T13:06:37.087Z,3.40
2019-02-04T13:09:02.956Z,3.41
2019-02-04T13:11:34.675Z,3.41
2019-02-04T13:14:03.056Z,3.40
2019-02-04T13:16:31.477Z,3.42
2019-02-04T13:19:00.084Z,3.42
2019-02-04T13:21:28.566Z,3.42
2019-02-04T13:23:56.928Z,3.42
2019-02-04T13:26:25.697Z,3.46
2019-02-04T13:28:54.008Z,3.50
2019-02-04T13:31:22.432Z,3.46
2019-02-04T13:33:50.734Z,3.45
2019-02-04T13:36:19.204Z,3.42
2019-02-04T13:38:47.654Z,3.47
2019-02-04T13:41:16.042Z,3.52
2019-02-04T13:43:44.503Z,3.47
2019-02-04T13:46:12.761Z,3.45
2019-02-04T13:48:41.185Z,3.47
2019-02-04T13:51:09.754Z,3.45
2019-02-04T13:53:38.047Z,3.45
2019-02-04T13:56:06.493Z,3.47
2019-02-04T13:58:34.977Z,3.47
2019-02-04T14:01:04.755Z,3.52
2019-02-04T14:03:33.115Z,3.51
2019-02-04T14:06:01.651Z,3.48
2019-02-04T14:08:30.075Z,3.51
2019-02-04T14:10:58.465Z,3.49
2019-02-04T14:13:26.885Z,3.49
2019-02-04T14:15:55.252Z,3.47
2019-02-04T14:18:26.517Z,3.45
2019-02-04T14:20:53.604Z,3.46
2019-02-04T14:23:21.932Z,3.48
2019-02-04T14:25:50.292Z,3.48
2019-02-04T14:28:18.603Z,3.49
2019-02-04T14:30:47.041Z,3.48
2019-02-04T14:33:15.422Z,3.48
2019-02-04T14:35:43.811Z,3.51
2019-02-04T14:38:12.297Z,3.56
2019-02-04T14:40:40.555Z,3.57
2019-02-04T14:43:12.402Z,3.55
2019-02-04T14:46:14.705Z,3.54
2019-02-04T14:48:49.031Z,3.57
2019-02-04T14:51:23.465Z,3.57
2019-02-04T14:54:11.483Z,3.59
2019-02-04T14:56:57.933Z,3.56
2019-02-04T14:59:27.956Z,3.56
2019-02-04T15:02:08.614Z,3.57
2019-02-04T15:04:46.232Z,3.59
2019-02-04T15:07:49.451Z,3.59
2019-02-04T15:10:33.330Z,3.60
2019-02-04T15:13:11.091Z,3.61
2019-02-04T15:16:08.541Z,3.58
2019-02-04T15:18:42.702Z,3.59
2019-02-04T15:21:20.075Z,3.56
2019-02-04T15:24:08.120Z,3.51
2019-02-04T15:26:33.350Z,3.50
2019-02-04T15:29:10.584Z,3.44
2019-02-04T15:32:03.191Z,3.37
2019-02-04T15:34:43.602Z,3.37
2019-02-04T15:37:24.464Z,3.33
2019-02-04T15:40:01.772Z,3.27
2019-02-04T15:42:55.943Z,3.21
2019-02-04T15:45:55.759Z,3.18
2019-02-04T15:48:27.283Z,3.14
2019-02-04T15:50:58.903Z,3.15
2019-02-04T15:53:50.301Z,3.09
2019-02-04T15:58:45.530Z,3.06
2019-02-04T16:07:52.328Z,3.03
2019-02-04T16:08:12.926Z,3.01
2019-02-04T16:09:52.893Z,2.98
2019-02-04T16:22:57.831Z,2.93
2019-02-04T16:24:12.438Z,2.87
2019-02-04T16:30:06.967Z,2.88
2019-02-04T16:38:05.686Z,2.86
2019-02-04T16:41:21.488Z,2.83
2019-02-04T16:43:30.580Z,2.88
2019-02-04T16:46:00.099Z,2.88
2019-02-04T16:49:18.877Z,2.85
2019-02-04T16:51:11.355Z,2.81
2019-02-04T16:53:51.520Z,2.83
2019-02-04T16:56:15.676Z,2.83
2019-02-04T16:58:49.299Z,2.79
2019-02-04T17:02:52.975Z,2.78
2019-02-04T17:03:51.220Z,2.80
2019-02-04T17:06:25.085Z,2.82
2019-02-04T17:08:55.115Z,2.79
2019-02-04T17:12:11.817Z,2.83
2019-02-04T17:14:04.068Z,2.80
2019-02-04T17:16:34.566Z,2.83
2019-02-04T17:19:09.216Z,2.84
2019-02-04T17:21:41.948Z,2.83
2019-02-04T17:24:09.715Z,2.82
2019-02-04T17:26:43.413Z,2.83
2019-02-04T17:29:14.017Z,2.84
2019-02-04T17:31:44.105Z,2.81
2019-02-04T17:34:15.900Z,2.78
2019-02-04T17:36:46.215Z,2.77
2019-02-04T17:39:20.446Z,2.79
2019-02-04T17:41:54.293Z,2.80
2019-02-04T17:44:24.035Z,2.76
2019-02-04T17:46:57.565Z,2.79
2019-02-04T17:49:27.723Z,2.74
2019-02-04T17:52:06.878Z,2.75
2019-02-04T17:54:36.458Z,2.74
2019-02-04T17:57:18.799Z,2.73
2019-02-04T17:59:47.395Z,2.75
2019-02-04T18:02:15.854Z,2.78
2019-02-04T18:04:47.298Z,2.83
2019-02-04T18:07:15.741Z,2.85
2019-02-04T18:09:45.431Z,2.88
2019-02-04T18:12:19.161Z,2.91
2019-02-04T18:14:47.514Z,2.91
2019-02-04T18:17:23.259Z,2.92
2019-02-04T18:19:56.532Z,2.93
2019-02-04T18:22:27.998Z,2.94
2019-02-04T18:25:23.071Z,2.90
2019-02-04T18:27:50.381Z,2.89
2019-02-04T18:30:23.690Z,2.91
2019-02-04T18:32:51.701Z,2.91
2019-02-04T18:35:21.397Z,2.93
2019-02-04T18:37:50.122Z,2.92
2019-02-04T18:40:20.626Z,2.90
2019-02-04T18:42:49.399Z,2.90
2019-02-04T18:45:21.082Z,2.91
2019-02-04T18:47:49.733Z,2.91
2019-02-04T18:50:19.725Z,2.92
2019-02-04T18:52:48.550Z,2.90
2019-02-04T18:55:19.498Z,2.89
2019-02-04T18:57:47.899Z,2.87
2019-02-04T19:00:18.900Z,2.88
2019-02-04T19:02:47.192Z,2.90
2019-02-04T19:05:15.609Z,2.81
2019-02-04T19:07:44.016Z,2.78
2019-02-04T19:10:22.247Z,2.78
2019-02-04T19:12:50.770Z,2.74
2019-02-04T19:15:21.082Z,2.76
2019-02-04T19:17:49.763Z,2.75
2019-02-04T19:20:21.229Z,2.73
2019-02-04T19:22:49.747Z,2.70
2019-02-04T19:25:19.930Z,2.71
2019-02-04T19:27:52.370Z,2.68
2019-02-04T19:30:33.281Z,2.74
2019-02-04T19:33:01.655Z,2.73
2019-02-04T19:35:30.033Z,2.67
2019-02-04T19:37:58.689Z,2.64
2019-02-04T19:40:27.059Z,2.66
2019-02-04T19:42:55.420Z,2.63
2019-02-04T19:45:25.285Z,2.58
2019-02-04T19:47:53.934Z,2.57
2019-02-04T19:50:31.030Z,2.60
2019-02-04T19:52:59.708Z,2.57
2019-02-04T19:55:28.135Z,2.57
2019-02-04T19:57:56.497Z,2.59
2019-02-04T20:00:24.962Z,2.57
2019-02-04T20:02:54.065Z,2.57
2019-02-04T20:05:27.072Z,2.56
2019-02-04T20:07:55.840Z,2.53
2019-02-04T20:10:27.472Z,2.52
2019-02-04T20:12:55.919Z,2.52
2019-02-04T20:15:26.723Z,2.54
2019-02-04T20:17:55.190Z,2.52
2019-02-04T20:20:23.898Z,2.52
2019-02-04T20:22:52.584Z,2.51
2019-02-04T20:25:24.275Z,2.54
2019-02-04T20:27:52.677Z,2.53
2019-02-04T20:30:44.577Z,2.52
2019-02-04T20:33:03.465Z,2.56
2019-02-04T20:35:31.900Z,2.56
2019-02-04T20:38:00.429Z,2.59
2019-02-04T20:40:28.744Z,2.56
2019-02-04T20:42:57.147Z,2.57
2019-02-04T20:45:25.593Z,2.55
2019-02-04T20:47:53.904Z,2.56
2019-02-04T20:50:28.077Z,2.59
2019-02-04T20:52:56.391Z,2.61
2019-02-04T20:55:24.671Z,2.63
2019-02-04T20:57:53.018Z,2.61
2019-02-04T21:00:23.925Z,2.60
2019-02-04T21:02:52.350Z,2.61
2019-02-04T21:05:20.602Z,2.58
2019-02-04T21:07:48.964Z,2.60
2019-02-04T21:10:26.735Z,2.62
2019-02-04T21:12:56.072Z,2.61
2019-02-04T21:15:24.728Z,2.62
2019-02-04T21:17:53.042Z,2.61
2019-02-04T21:20:23.962Z,2.63
2019-02-04T21:22:52.299Z,2.62
2019-02-04T21:25:20.648Z,2.60
2019-02-04T21:27:49.277Z,2.59
2019-02-04T21:30:31.687Z,2.59
2019-02-04T21:33:00.084Z,2.62
2019-02-04T21:35:28.450Z,2.65
2019-02-04T21:37:56.843Z,2.62
2019-02-04T21:40:25.610Z,2.62
2019-02-04T21:42:53.889Z,2.62
2019-02-04T21:45:23.664Z,2.61
2019-02-04T21:47:52.039Z,2.60
2019-02-04T21:50:22.155Z,2.60
2019-02-04T21:52:50.444Z,2.62
2019-02-04T21:55:18.979Z,2.61
2019-02-04T21:57:47.257Z,2.61
2019-02-04T22:00:24.833Z,2.63
2019-02-04T22:02:53.212Z,2.60
2019-02-04T22:05:26.591Z,2.58
2019-02-04T22:07:54.873Z,2.64
2019-02-04T22:10:25.020Z,2.60
2019-02-04T22:12:53.320Z,2.58
2019-02-04T22:15:22.240Z,2.61
2019-02-04T22:17:50.616Z,2.61
2019-02-04T22:20:20.100Z,2.63
2019-02-04T22:22:48.482Z,2.61
2019-02-04T22:25:19.934Z,2.64
2019-02-04T22:27:48.534Z,2.69
2019-02-04T22:30:18.843Z,2.69
2019-02-04T22:32:47.627Z,2.68
2019-02-04T22:35:17.598Z,2.66
2019-02-04T22:37:45.924Z,2.70
2019-02-04T22:40:23.375Z,2.69
2019-02-04T22:42:51.809Z,2.68
2019-02-04T22:45:20.259Z,2.65
2019-02-04T22:47:48.563Z,2.69
2019-02-04T22:50:24.721Z,2.73
2019-02-04T22:52:53.055Z,2.68
2019-02-04T22:55:31.541Z,2.69
2019-02-04T22:57:51.421Z,2.70
2019-02-04T23:00:51.698Z,2.74
2019-02-04T23:03:26.228Z,2.75
2019-02-04T23:05:54.568Z,2.77
2019-02-04T23:08:22.917Z,2.77
2019-02-04T23:10:51.187Z,2.75
2019-02-04T23:13:19.496Z,2.76
2019-02-04T23:15:47.789Z,2.78
2019-02-04T23:18:16.059Z,2.77
2019-02-04T23:20:45.120Z,2.79
2019-02-04T23:23:13.457Z,2.79
2019-02-04T23:25:43.593Z,2.79
2019-02-04T23:28:11.769Z,2.82
2019-02-04T23:30:40.132Z,2.86
2019-02-04T23:33:08.538Z,2.88
2019-02-04T23:35:36.867Z,2.85
2019-02-04T23:38:05.571Z,2.86
2019-02-04T23:40:33.921Z,2.86
2019-02-04T23:43:02.225Z,2.88
2019-02-04T23:45:30.620Z,2.86
2019-02-04T23:47:59.457Z,2.87
2019-02-04T23:50:28.092Z,2.85
2019-02-04T23:52:56.432Z,2.86
2019-02-04T23:55:24.726Z,2.85
2019-02-04T23:57:52.997Z,2.82
